createdAt,value
2022-11-05T00:01:13.590Z,100040.53
2022-11-05T00:03:59.830Z,100042.22
2022-11-05T00:06:46.014Z,100036.88
2022-11-05T00:09:32.891Z,100046.91
2022-11-05T00:12:31.869Z,100043.69
2022-11-05T00:15:18.359Z,100034.34
2022-11-05T00:17:46.270Z,100045.13
2022-11-05T00:20:14.291Z,100049.47
2022-11-05T00:23:00.705Z,100045.97
2022-11-05T00:25:30.359Z,100037.56
2022-11-05T00:28:02.210Z,100049.41
2022-11-05T00:30:30.496Z,100036.25
2022-11-05T00:33:02.777Z,100040.53
2022-11-05T00:35:30.664Z,100042.22
2022-11-05T00:37:58.484Z,100044.78
2022-11-05T00:40:26.531Z,100046.81
2022-11-05T00:43:13.262Z,100042.25
2022-11-05T00:45:41.299Z,100042.44
2022-11-05T00:48:27.584Z,100044.47
2022-11-05T00:50:55.470Z,100050.44
2022-11-05T00:53:23.854Z,100045.19
2022-11-05T00:55:51.783Z,100040.75
2022-11-05T00:58:21.250Z,100050.13
2022-11-05T01:00:51.086Z,100047.34
2022-11-05T01:03:22.075Z,100049.06
2022-11-05T01:05:52.763Z,100055.44
2022-11-05T01:08:22.341Z,100055.44
2022-11-05T01:10:55.768Z,100053.78
2022-11-05T01:13:28.662Z,100060.13
2022-11-05T01:15:57.661Z,100060.13
2022-11-05T01:18:25.774Z,100059.28
2022-11-05T01:20:53.757Z,100051.28
2022-11-05T01:23:22.350Z,100055.56
2022-11-05T01:25:50.429Z,100055.66
2022-11-05T01:28:18.540Z,100070.34
2022-11-05T01:30:46.793Z,100064.50
2022-11-05T01:33:14.840Z,100069.13
2022-11-05T01:35:42.903Z,100060.94
2022-11-05T01:38:10.820Z,100064.00
2022-11-05T01:40:43.040Z,100071.06
2022-11-05T01:43:19.499Z,100072.06
2022-11-05T01:45:51.370Z,100068.03
2022-11-05T01:48:30.705Z,100078.41
2022-11-05T01:51:03.318Z,100081.63
2022-11-05T01:53:48.663Z,100077.66
2022-11-05T01:56:19.034Z,100088.00
2022-11-05T01:58:52.357Z,100096.63
2022-11-05T02:01:20.360Z,100093.97
2022-11-05T02:03:50.922Z,100100.59
2022-11-05T02:06:19.805Z,100097.97
2022-11-05T02:09:02.936Z,100100.59
2022-11-05T02:11:31.078Z,100095.19
2022-11-05T02:13:59.643Z,100099.91
2022-11-05T02:16:36.882Z,100108.44
2022-11-05T02:19:32.175Z,100112.88
2022-11-05T02:22:29.120Z,100110.75
2022-11-05T02:24:57.104Z,100107.47
2022-11-05T02:27:46.465Z,100106.84
2022-11-05T02:30:32.140Z,100108.69
2022-11-05T02:33:36.366Z,100122.25
2022-11-05T02:36:19.159Z,100119.28
2022-11-05T02:39:07.803Z,100116.47
2022-11-05T02:42:09.911Z,100117.28
2022-11-05T02:45:05.006Z,100122.66
2022-11-05T02:48:01.563Z,100115.25
2022-11-05T02:50:29.503Z,100125.06
2022-11-05T02:53:03.514Z,100130.22
2022-11-05T02:55:40.011Z,100126.88
2022-11-05T02:58:08.227Z,100127.50
2022-11-05T03:00:40.138Z,100134.44
2022-11-05T03:03:26.277Z,100146.06
2022-11-05T03:06:24.727Z,100153.31
2022-11-05T03:09:10.488Z,100160.41
2022-11-05T03:11:58.486Z,100149.97
2022-11-05T03:14:37.291Z,100147.81
2022-11-05T03:17:10.901Z,100148.13
2022-11-05T03:20:26.068Z,100159.50
2022-11-05T03:23:05.327Z,100152.41
2022-11-05T03:25:39.457Z,100159.50
2022-11-05T03:28:10.199Z,100164.25
2022-11-05T03:30:41.155Z,100171.34
2022-11-05T03:33:17.962Z,100165.28
2022-11-05T03:35:50.762Z,100180.13
2022-11-05T03:38:27.609Z,100179.84
2022-11-05T03:40:58.862Z,100176.34
2022-11-05T03:43:32.355Z,100187.16
2022-11-05T03:46:06.717Z,100183.75
2022-11-05T03:48:41.351Z,100191.16
2022-11-05T03:51:20.817Z,100187.19
2022-11-05T03:53:53.026Z,100182.06
2022-11-05T03:56:34.429Z,100190.63
2022-11-05T03:59:05.111Z,100190.44
2022-11-05T04:01:33.780Z,100191.03
2022-11-05T04:04:01.900Z,100188.91
2022-11-05T04:06:48.414Z,100198.22
2022-11-05T04:09:34.504Z,100196.13
2022-11-05T04:12:20.631Z,100193.28
2022-11-05T04:14:48.417Z,100191.75
2022-11-05T04:17:16.219Z,100191.28
2022-11-05T04:20:03.982Z,100193.44
2022-11-05T04:22:52.923Z,100197.38
2022-11-05T04:25:21.954Z,100205.47
2022-11-05T04:27:50.358Z,100197.84
2022-11-05T04:30:19.162Z,100205.56
2022-11-05T04:32:55.867Z,100212.72
2022-11-05T04:35:24.508Z,100200.13
2022-11-05T04:37:52.503Z,100211.16
2022-11-05T04:40:20.617Z,100205.81
2022-11-05T04:42:48.835Z,100205.75
2022-11-05T04:45:17.123Z,100208.38
2022-11-05T04:47:45.149Z,100210.69
2022-11-05T04:50:13.535Z,100206.59
2022-11-05T04:52:41.556Z,100210.50
2022-11-05T04:55:09.619Z,100205.56
2022-11-05T04:57:37.979Z,100205.81
2022-11-05T05:00:07.648Z,100221.34
2022-11-05T05:02:38.738Z,100214.97
2022-11-05T05:05:06.994Z,100206.78
2022-11-05T05:07:35.537Z,100215.63
2022-11-05T05:10:06.115Z,100227.25
2022-11-05T05:12:34.916Z,100222.28
2022-11-05T05:15:02.735Z,100230.16
2022-11-05T05:17:30.773Z,100236.81
2022-11-05T05:20:16.977Z,100240.66
2022-11-05T05:22:44.600Z,100247.78
2022-11-05T05:25:12.629Z,100245.78
2022-11-05T05:27:40.750Z,100255.00
2022-11-05T05:30:09.555Z,100257.13
2022-11-05T05:32:37.671Z,100267.19
2022-11-05T05:35:06.421Z,100256.94
2022-11-05T05:37:34.264Z,100261.53
2022-11-05T05:40:02.180Z,100271.84
2022-11-05T05:42:30.175Z,100276.84
2022-11-05T05:44:58.099Z,100269.97
2022-11-05T05:47:26.043Z,100269.28
2022-11-05T05:49:54.061Z,100276.44
2022-11-05T05:52:22.087Z,100281.97
2022-11-05T05:54:49.825Z,100277.78
2022-11-05T05:57:17.764Z,100285.94
2022-11-05T05:59:46.069Z,100292.44
2022-11-05T06:02:14.265Z,100289.63
2022-11-05T06:04:42.269Z,100299.03
2022-11-05T06:07:09.949Z,100293.06
2022-11-05T06:09:38.094Z,100295.66
2022-11-05T06:12:06.088Z,100301.84
2022-11-05T06:14:33.869Z,100294.31
2022-11-05T06:17:01.940Z,100296.94
2022-11-05T06:19:29.851Z,100307.47
2022-11-05T06:21:57.627Z,100299.72
2022-11-05T06:24:25.681Z,100309.53
2022-11-05T06:26:53.517Z,100301.78
2022-11-05T06:29:21.647Z,100311.72
2022-11-05T06:31:49.381Z,100317.25
2022-11-05T06:34:16.939Z,100311.88
2022-11-05T06:36:44.754Z,100322.88
2022-11-05T06:39:13.366Z,100322.75
2022-11-05T06:44:29.583Z,100314.47
2022-11-05T06:46:57.877Z,100327.84
2022-11-05T06:49:25.965Z,100329.31
2022-11-05T06:51:54.022Z,100329.25
2022-11-05T06:54:22.026Z,100341.13
2022-11-05T06:56:50.343Z,100339.56
2022-11-05T06:59:18.103Z,100349.00
2022-11-05T07:01:46.153Z,100354.25
2022-11-05T07:04:17.084Z,100359.41
2022-11-05T07:06:45.002Z,100359.81
2022-11-05T07:09:13.150Z,100366.91
2022-11-05T07:11:41.054Z,100365.63
2022-11-05T07:14:08.869Z,100361.81
2022-11-05T07:16:36.712Z,100358.34
2022-11-05T07:19:04.913Z,100359.78
2022-11-05T07:21:35.463Z,100372.75
2022-11-05T07:24:03.303Z,100362.84
2022-11-05T07:26:34.542Z,100365.03
2022-11-05T07:29:02.707Z,100372.72
2022-11-05T07:31:30.928Z,100376.13
2022-11-05T07:33:59.377Z,100389.81
2022-11-05T07:36:27.553Z,100393.00
2022-11-05T07:39:00.180Z,100387.88
2022-11-05T07:41:29.653Z,100396.06
2022-11-05T07:43:57.428Z,100404.97
2022-11-05T07:46:25.478Z,100407.31
2022-11-05T07:48:53.410Z,100411.19
2022-11-05T07:51:21.592Z,100406.06
2022-11-05T07:53:49.940Z,100405.31
2022-11-05T07:56:17.939Z,100409.53
2022-11-05T07:58:46.066Z,100422.34
2022-11-05T08:01:14.274Z,100414.09
2022-11-05T08:03:42.387Z,100417.22
2022-11-05T08:06:10.703Z,100422.28
2022-11-05T08:08:38.769Z,100429.47
2022-11-05T08:11:11.050Z,100433.25
2022-11-05T08:13:39.331Z,100439.28
2022-11-05T08:16:08.310Z,100439.31
2022-11-05T08:18:36.190Z,100449.25
2022-11-05T08:21:05.929Z,100438.63
2022-11-05T08:23:33.963Z,100442.34
2022-11-05T08:26:04.155Z,100447.28
2022-11-05T08:28:32.433Z,100449.19
2022-11-05T08:31:00.164Z,100448.75
2022-11-05T08:33:29.802Z,100454.56
2022-11-05T08:36:02.167Z,100455.75
2022-11-05T08:38:30.387Z,100462.59
2022-11-05T08:40:58.973Z,100456.03
2022-11-05T08:43:27.079Z,100456.03
2022-11-05T08:45:55.375Z,100459.94
2022-11-05T08:48:23.381Z,100456.88
2022-11-05T08:50:51.459Z,100457.63
2022-11-05T08:53:19.610Z,100461.28
2022-11-05T08:55:50.069Z,100462.50
2022-11-05T08:58:18.238Z,100458.22
2022-11-05T09:00:49.236Z,100464.09
2022-11-05T09:03:18.166Z,100469.56
2022-11-05T09:05:46.704Z,100473.34
2022-11-05T09:08:17.526Z,100481.19
2022-11-05T09:10:46.780Z,100480.19
2022-11-05T09:13:18.823Z,100478.50
2022-11-05T09:15:49.311Z,100479.81
2022-11-05T09:18:18.688Z,100482.50
2022-11-05T09:20:47.212Z,100482.38
2022-11-05T09:23:16.137Z,100503.09
2022-11-05T09:25:44.618Z,100497.66
2022-11-05T09:28:16.815Z,100502.88
2022-11-05T09:30:48.130Z,100501.63
2022-11-05T09:33:24.447Z,100493.97
2022-11-05T09:35:53.500Z,100500.31
2022-11-05T09:38:22.100Z,100509.72
2022-11-05T09:41:03.304Z,100502.53
2022-11-05T09:43:40.787Z,100496.31
2022-11-05T09:46:17.633Z,100501.53
2022-11-05T09:48:49.805Z,100504.38
2022-11-05T09:51:23.750Z,100503.63
2022-11-05T09:53:53.986Z,100508.63
2022-11-05T09:56:28.063Z,100503.16
2022-11-05T09:59:01.029Z,100506.31
2022-11-05T10:01:35.869Z,100514.13
2022-11-05T10:04:13.299Z,100515.22
2022-11-05T10:06:48.684Z,100518.63
2022-11-05T10:09:36.174Z,100523.28
2022-11-05T10:12:14.927Z,100521.19
2022-11-05T10:15:04.310Z,100522.41
2022-11-05T10:17:39.231Z,100527.41
2022-11-05T10:20:32.796Z,100522.19
2022-11-05T10:23:13.911Z,100525.00
2022-11-05T10:25:46.773Z,100531.22
2022-11-05T10:28:19.238Z,100527.78
2022-11-05T10:30:50.542Z,100521.69
2022-11-05T10:33:35.800Z,100524.97
2022-11-05T10:36:07.308Z,100522.41
2022-11-05T10:38:35.266Z,100517.63
2022-11-05T10:41:21.602Z,100528.81
2022-11-05T10:43:58.606Z,100525.00
2022-11-05T10:46:41.230Z,100525.31
2022-11-05T10:49:27.393Z,100524.44
2022-11-05T10:51:59.041Z,100528.56
2022-11-05T10:54:33.685Z,100525.47
2022-11-05T10:57:39.190Z,100522.59
2022-11-05T11:00:16.321Z,100523.25
2022-11-05T11:02:59.514Z,100527.72
2022-11-05T11:05:36.827Z,100525.59
2022-11-05T11:08:13.506Z,100522.44
2022-11-05T11:10:48.891Z,100516.81
2022-11-05T11:13:28.886Z,100517.56
2022-11-05T11:16:19.864Z,100517.47
2022-11-05T11:18:56.506Z,100520.44
2022-11-05T11:21:27.471Z,100515.66
2022-11-05T11:24:09.461Z,100517.47
2022-11-05T11:26:40.623Z,100523.31
2022-11-05T11:29:19.840Z,100512.06
2022-11-05T11:31:47.708Z,100518.50
2022-11-05T11:34:31.598Z,100518.88
2022-11-05T11:37:06.783Z,100516.50
2022-11-05T11:39:35.085Z,100516.06
2022-11-05T11:42:11.661Z,100512.22
2022-11-05T11:44:46.448Z,100509.72
2022-11-05T11:47:17.413Z,100506.16
2022-11-05T11:49:47.392Z,100511.97
2022-11-05T11:52:35.965Z,100512.13
2022-11-05T11:55:09.492Z,100508.72
2022-11-05T11:58:05.404Z,100511.28
2022-11-05T12:00:43.050Z,100519.81
2022-11-05T12:03:23.095Z,100508.59
2022-11-05T12:06:03.797Z,100521.25
2022-11-05T12:08:47.652Z,100520.97
2022-11-05T12:11:34.249Z,100518.53
2022-11-05T12:14:06.570Z,100516.16
2022-11-05T12:16:49.797Z,100515.41
2022-11-05T12:19:35.606Z,100516.13
2022-11-05T12:22:18.341Z,100515.88
2022-11-05T12:25:05.946Z,100512.44
2022-11-05T12:27:47.331Z,100515.84
2022-11-05T12:30:20.205Z,100512.19
2022-11-05T12:32:55.069Z,100503.91
2022-11-05T12:35:57.898Z,100503.06
2022-11-05T12:38:53.245Z,100512.44
2022-11-05T12:41:29.790Z,100514.00
2022-11-05T12:44:10.422Z,100505.91
2022-11-05T12:46:38.302Z,100509.56
2022-11-05T12:49:36.467Z,100501.66
2022-11-05T12:52:19.055Z,100505.06
2022-11-05T12:55:05.221Z,100503.88
2022-11-05T12:57:36.485Z,100504.16
2022-11-05T13:00:16.314Z,100511.97
2022-11-05T13:02:49.735Z,100508.72
2022-11-05T13:05:25.113Z,100505.63
2022-11-05T13:08:01.239Z,100511.03
2022-11-05T13:10:35.386Z,100503.63
2022-11-05T13:13:32.607Z,100512.44
2022-11-05T13:16:19.969Z,100515.56
2022-11-05T13:18:52.405Z,100509.59
2022-11-05T13:21:24.291Z,100506.47
2022-11-05T13:23:57.476Z,100513.00
2022-11-05T13:26:31.527Z,100507.88
2022-11-05T13:29:41.249Z,100511.00
2022-11-05T13:32:35.315Z,100504.91
2022-11-05T13:35:05.519Z,100498.53
2022-11-05T13:37:59.436Z,100503.63
2022-11-05T13:40:50.265Z,100494.25
2022-11-05T13:43:37.053Z,100495.53
2022-11-05T13:46:33.889Z,100506.16
2022-11-05T13:49:25.635Z,100508.56
2022-11-05T13:52:36.693Z,100507.00
2022-11-05T13:55:41.830Z,100510.56
2022-11-05T13:58:26.327Z,100503.75
2022-11-05T14:01:06.054Z,100508.09
2022-11-05T14:03:33.923Z,100509.41
2022-11-05T14:06:07.483Z,100509.41
2022-11-05T14:08:43.716Z,100516.63
2022-11-05T14:11:33.352Z,100518.34
2022-11-05T14:14:20.018Z,100515.91
2022-11-05T14:17:14.122Z,100524.44
2022-11-05T14:20:05.850Z,100524.72
2022-11-05T14:22:33.722Z,100527.78
2022-11-05T14:25:22.467Z,100522.03
2022-11-05T14:27:52.348Z,100525.94
2022-11-05T14:30:46.370Z,100527.84
2022-11-05T14:33:24.645Z,100532.41
2022-11-05T14:35:54.080Z,100534.25
2022-11-05T14:38:26.140Z,100542.00
2022-11-05T14:41:02.508Z,100540.63
2022-11-05T14:43:34.026Z,100544.84
2022-11-05T14:46:09.194Z,100545.16
2022-11-05T14:48:42.217Z,100545.38
2022-11-05T14:51:35.871Z,100552.75
2022-11-05T14:54:21.766Z,100546.94
2022-11-05T14:56:57.140Z,100556.78
2022-11-05T14:59:24.832Z,100560.72
2022-11-05T15:01:58.991Z,100558.56
2022-11-05T15:04:27.844Z,100569.06
2022-11-05T15:07:04.502Z,100572.91
2022-11-05T15:09:53.569Z,100561.94
2022-11-05T15:12:39.737Z,100569.47
2022-11-05T15:15:22.327Z,100569.41
2022-11-05T15:18:26.564Z,100570.34
2022-11-05T15:20:57.730Z,100570.59
2022-11-05T15:23:30.205Z,100578.72
2022-11-05T15:26:31.659Z,100584.88
2022-11-05T15:29:00.812Z,100577.66
2022-11-05T15:31:35.511Z,100578.53
2022-11-05T15:34:15.527Z,100586.13
2022-11-05T15:37:11.797Z,100581.34
2022-11-05T15:39:45.263Z,100589.81
2022-11-05T15:42:14.289Z,100587.63
2022-11-05T15:44:47.823Z,100586.22
2022-11-05T15:47:24.194Z,100586.63
2022-11-05T15:49:57.114Z,100598.38
2022-11-05T15:52:31.757Z,100594.34
2022-11-05T15:55:14.705Z,100595.72
2022-11-05T15:57:50.429Z,100600.34
2022-11-05T16:00:24.645Z,100593.41
2022-11-05T16:03:15.307Z,100596.19
2022-11-05T16:05:46.484Z,100599.34
2022-11-05T16:08:28.653Z,100595.09
2022-11-05T16:11:00.770Z,100599.00
2022-11-05T16:13:38.540Z,100607.19
2022-11-05T16:16:27.759Z,100611.22
2022-11-05T16:18:55.405Z,100607.44
2022-11-05T16:21:23.731Z,100611.09
2022-11-05T16:23:57.773Z,100609.75
2022-11-05T16:27:01.720Z,100620.44
2022-11-05T16:29:33.671Z,100609.91
2022-11-05T16:32:04.784Z,100620.63
2022-11-05T16:34:45.575Z,100617.84
2022-11-05T16:37:17.169Z,100626.38
2022-11-05T16:39:45.102Z,100634.53
2022-11-05T16:42:24.684Z,100637.69
2022-11-05T16:44:54.960Z,100639.91
2022-11-05T16:47:23.092Z,100639.31
2022-11-05T16:49:51.262Z,100643.41
2022-11-05T16:52:22.415Z,100645.41
2022-11-05T16:54:50.363Z,100653.44
2022-11-05T16:57:29.463Z,100650.88
2022-11-05T17:00:04.606Z,100654.09
2022-11-05T17:02:33.439Z,100651.81
2022-11-05T17:05:01.808Z,100653.75
2022-11-05T17:07:29.781Z,100656.13
2022-11-05T17:09:58.033Z,100662.16
2022-11-05T17:12:26.129Z,100658.00
2022-11-05T17:14:54.266Z,100670.91
2022-11-05T17:17:22.184Z,100667.47
2022-11-05T17:19:50.471Z,100677.00
2022-11-05T17:22:18.252Z,100681.94
2022-11-05T17:24:46.162Z,100685.25
2022-11-05T17:27:14.362Z,100687.00
2022-11-05T17:29:42.337Z,100695.34
2022-11-05T17:32:10.379Z,100703.28
2022-11-05T17:34:38.170Z,100698.91
2022-11-05T17:37:05.821Z,100706.56
2022-11-05T17:39:33.884Z,100702.50
2022-11-05T17:42:01.652Z,100702.09
2022-11-05T17:44:29.829Z,100712.09
2022-11-05T17:46:57.785Z,100706.53
2022-11-05T17:49:25.611Z,100713.97
2022-11-05T17:51:53.726Z,100714.34
2022-11-05T17:54:21.892Z,100719.50
2022-11-05T17:56:52.807Z,100728.72
2022-11-05T17:59:20.724Z,100730.47
2022-11-05T18:01:48.964Z,100730.00
2022-11-05T18:04:16.870Z,100734.56
2022-11-05T18:06:44.810Z,100731.44
2022-11-05T18:09:13.496Z,100743.66
2022-11-05T18:11:41.974Z,100740.13
2022-11-05T18:14:10.289Z,100735.41
2022-11-05T18:16:38.568Z,100742.16
2022-11-05T18:19:06.632Z,100749.63
2022-11-05T18:21:34.584Z,100744.19
2022-11-05T18:24:04.162Z,100746.09
2022-11-05T18:26:32.473Z,100750.72
2022-11-05T18:29:05.470Z,100743.75
2022-11-05T18:31:33.540Z,100748.91
2022-11-05T18:34:01.740Z,100753.50
2022-11-05T18:36:31.578Z,100744.72
2022-11-05T18:39:01.718Z,100753.94
2022-11-05T18:41:30.209Z,100753.41
2022-11-05T18:44:01.739Z,100755.56
2022-11-05T18:46:56.431Z,100759.81
2022-11-05T18:49:18.461Z,100770.94
2022-11-05T18:51:46.204Z,100755.72
2022-11-05T18:54:14.654Z,100766.69
2022-11-05T18:56:45.610Z,100775.34
2022-11-05T18:59:36.018Z,100773.41
2022-11-05T19:02:04.209Z,100779.22
2022-11-05T19:04:32.198Z,100775.31
2022-11-05T19:07:04.406Z,100794.63
2022-11-05T19:09:37.503Z,100796.38
2022-11-05T19:12:07.171Z,100802.88
2022-11-05T19:14:35.724Z,100801.06
2022-11-05T19:17:04.435Z,100801.28
2022-11-05T19:19:32.510Z,100805.44
2022-11-05T19:22:00.174Z,100811.03
2022-11-05T19:24:28.138Z,100812.41
2022-11-05T19:26:56.089Z,100813.66
2022-11-05T19:29:23.918Z,100821.38
2022-11-05T19:31:51.888Z,100822.53
2022-11-05T19:34:20.636Z,100826.59
2022-11-05T19:36:48.513Z,100820.66
2022-11-05T19:39:16.354Z,100826.03
2022-11-05T19:41:44.132Z,100833.69
2022-11-05T19:44:11.797Z,100828.59
2022-11-05T19:46:39.542Z,100829.50
2022-11-05T19:49:07.294Z,100834.63
2022-11-05T19:51:35.194Z,100838.06
2022-11-05T19:54:04.724Z,100841.47
2022-11-05T19:56:34.381Z,100846.31
2022-11-05T19:59:06.790Z,100844.59
2022-11-05T20:01:35.574Z,100862.28
2022-11-05T20:04:04.820Z,100865.69
2022-11-05T20:06:37.909Z,100871.78
2022-11-05T20:09:24.242Z,100871.59
2022-11-05T20:11:56.620Z,100871.50
2022-11-05T20:14:25.393Z,100872.09
2022-11-05T20:16:53.993Z,100872.75
2022-11-05T20:19:22.944Z,100860.91
2022-11-05T20:21:51.087Z,100858.63
2022-11-05T20:24:24.791Z,100862.97
2022-11-05T20:26:55.153Z,100862.78
2022-11-05T20:29:23.851Z,100863.47
2022-11-05T20:31:53.609Z,100878.72
2022-11-05T20:34:21.527Z,100870.13
2022-11-05T20:36:49.256Z,100881.19
2022-11-05T20:39:17.878Z,100877.28
2022-11-05T20:41:45.764Z,100890.34
2022-11-05T20:44:13.764Z,100894.84
2022-11-05T20:46:42.088Z,100892.38
2022-11-05T20:49:10.093Z,100906.72
2022-11-05T20:51:38.181Z,100899.84
2022-11-05T20:54:06.043Z,100898.06
2022-11-05T20:56:37.208Z,100907.50
2022-11-05T20:59:05.836Z,100906.63
2022-11-05T21:01:35.001Z,100907.75
2022-11-05T21:04:04.306Z,100910.78
2022-11-05T21:06:33.779Z,100909.31
2022-11-05T21:09:02.462Z,100901.78
2022-11-05T21:11:50.260Z,100914.25
2022-11-05T21:14:18.276Z,100907.13
2022-11-05T21:16:46.120Z,100912.53
2022-11-05T21:19:15.221Z,100914.81
2022-11-05T21:21:43.053Z,100911.09
2022-11-05T21:24:11.074Z,100912.16
2022-11-05T21:26:39.647Z,100915.50
2022-11-05T21:29:07.858Z,100914.91
2022-11-05T21:31:37.463Z,100925.81
2022-11-05T21:34:05.583Z,100935.97
2022-11-05T21:36:34.396Z,100923.94
2022-11-05T21:39:02.616Z,100937.91
2022-11-05T21:41:30.686Z,100933.78
2022-11-05T21:43:58.376Z,100943.44
2022-11-05T21:46:26.522Z,100942.63
2022-11-05T21:48:54.296Z,100941.75
2022-11-05T21:51:40.964Z,100934.72
2022-11-05T21:54:31.601Z,100946.03
2022-11-05T21:57:17.899Z,100955.16
2022-11-05T21:59:48.517Z,100951.38
2022-11-05T22:02:22.257Z,100949.88
2022-11-05T22:04:53.400Z,100953.28
2022-11-05T22:07:24.164Z,100950.34
2022-11-05T22:09:52.422Z,100957.00
2022-11-05T22:12:20.784Z,100951.06
2022-11-05T22:14:48.787Z,100947.66
2022-11-05T22:17:16.961Z,100965.38
2022-11-05T22:19:45.132Z,100957.81
2022-11-05T22:22:13.530Z,100958.50
2022-11-05T22:24:42.080Z,100957.56
2022-11-05T22:27:18.041Z,100957.13
2022-11-05T22:29:46.431Z,100960.38
2022-11-05T22:32:14.653Z,100957.56
2022-11-05T22:34:42.643Z,100954.53
2022-11-05T22:37:13.014Z,100959.38
2022-11-05T22:39:41.009Z,100967.47
2022-11-05T22:42:09.078Z,100963.00
2022-11-05T22:44:37.013Z,100967.63
2022-11-05T22:47:05.592Z,100964.59
2022-11-05T22:49:34.184Z,100964.00
2022-11-05T22:52:02.309Z,100976.66
2022-11-05T22:54:33.859Z,100978.66
2022-11-05T22:57:04.246Z,100983.28
2022-11-05T22:59:32.642Z,100978.47
2022-11-05T23:02:05.138Z,100987.94
2022-11-05T23:04:36.192Z,100982.78
2022-11-05T23:07:27.343Z,100985.38
2022-11-05T23:10:14.314Z,100987.16
2022-11-05T23:12:44.527Z,100990.69
2022-11-05T23:15:33.076Z,100992.66
2022-11-05T23:18:19.253Z,100999.50
2022-11-05T23:21:05.570Z,100994.88
2022-11-05T23:23:51.609Z,100994.59
2022-11-05T23:26:38.041Z,100986.69
2022-11-05T23:29:05.767Z,100991.66
2022-11-05T23:31:52.180Z,100984.19
2022-11-05T23:34:19.874Z,100988.97
2022-11-05T23:37:06.340Z,100992.19
2022-11-05T23:39:41.262Z,101003.72
2022-11-05T23:42:29.003Z,101001.38
2022-11-05T23:45:15.524Z,100991.41
2022-11-05T23:48:02.269Z,100994.38
2022-11-05T23:50:34.399Z,100996.03
2022-11-05T23:53:07.647Z,100997.25
2022-11-05T23:55:35.216Z,100997.50
2022-11-05T23:58:03.135Z,100997.44
